Terminal Aerodrome Forecast
Issued by NWS

Home | Current Version | Previous Version | Text Only | Print | Product List | Glossary On
Versions: 1 2 3 4 5 6 7 8 9 10 11 12
310
FTUS46 KMTR 051733
TAFSNS
TAF
KSNS 051733Z 0518/0618 11012KT P6SM SKC
     FM052200 28007KT P6SM SCT200
     FM060500 12004KT P6SM SCT200=

USA.gov is the U.S. government's official web portal to all federal, state and local government web resources and services.